DMXHG EDVQ-EDVQ
Flight info
| Callsign | DMXHG |
|---|---|
| Flight time | 0h 39m |
| Altitude | 2500 |
| Route | DCT |
| Aircraft | VL3/L-VGD/C |
Departure
| Time | 2026-04-14 20:11 |
|---|---|
| Airport | Wilsche Glider Field (EDVQ) |
Arrival
| Time | 2026-04-14 20:50 |
|---|---|
| Airport | Wilsche Glider Field (EDVQ) |
| Time | Latitude | Longitude | Altitude | Speed | Heading |
|---|---|---|---|---|---|
| 2026-04-14 19:56 | 52.52301 | 10.46539 | 192 ft | 0 kts | 120° |
| 2026-04-14 20:02 | 52.52310 | 10.46568 | 201 ft | 9 kts | 36° |
| 2026-04-14 20:02 | 52.52362 | 10.46683 | 181 ft | 12 kts | 86° |
| 2026-04-14 20:02 | 52.52385 | 10.46787 | 195 ft | 13 kts | 57° |
| 2026-04-14 20:02 | 52.52423 | 10.46845 | 181 ft | 0 kts | 34° |
| 2026-04-14 20:06 | 52.52424 | 10.46845 | 181 ft | 1 kts | 33° |
| 2026-04-14 20:06 | 52.52425 | 10.46846 | 181 ft | 0 kts | 32° |
| 2026-04-14 20:10 | 52.52430 | 10.46851 | 180 ft | 4 kts | 32° |
| 2026-04-14 20:10 | 52.52457 | 10.46824 | 179 ft | 8 kts | 272° |
| 2026-04-14 20:11 | 52.52479 | 10.46245 | 264 ft | 82 kts | 273° |
| 2026-04-14 20:11 | 52.52499 | 10.45311 | 882 ft | 91 kts | 273° |
| 2026-04-14 20:11 | 52.52745 | 10.44261 | 1250 ft | 111 kts | 321° |
| 2026-04-14 20:11 | 52.53407 | 10.44294 | 1855 ft | 103 kts | 32° |
| 2026-04-14 20:12 | 52.53691 | 10.45424 | 1844 ft | 119 kts | 95° |
| 2026-04-14 20:12 | 52.53218 | 10.46536 | 1839 ft | 123 kts | 146° |
| 2026-04-14 20:12 | 52.52465 | 10.47176 | 1814 ft | 120 kts | 153° |
| 2026-04-14 20:12 | 52.51710 | 10.47738 | 1795 ft | 121 kts | 156° |
| 2026-04-14 20:13 | 52.50940 | 10.48325 | 1770 ft | 122 kts | 153° |
| 2026-04-14 20:13 | 52.50175 | 10.48946 | 1784 ft | 122 kts | 154° |
| 2026-04-14 20:13 | 52.49407 | 10.49535 | 1781 ft | 122 kts | 154° |
| 2026-04-14 20:13 | 52.48652 | 10.50124 | 1751 ft | 122 kts | 155° |
| 2026-04-14 20:14 | 52.47885 | 10.50704 | 1762 ft | 121 kts | 155° |
| 2026-04-14 20:14 | 52.47114 | 10.51258 | 1777 ft | 120 kts | 156° |
| 2026-04-14 20:14 | 52.46321 | 10.51757 | 1751 ft | 124 kts | 160° |
| 2026-04-14 20:14 | 52.45500 | 10.52233 | 1716 ft | 125 kts | 161° |
| 2026-04-14 20:15 | 52.44686 | 10.52695 | 1727 ft | 123 kts | 158° |
| 2026-04-14 20:15 | 52.43898 | 10.53249 | 1773 ft | 123 kts | 156° |
| 2026-04-14 20:15 | 52.43109 | 10.53843 | 1772 ft | 127 kts | 155° |
| 2026-04-14 20:15 | 52.42302 | 10.54433 | 1795 ft | 127 kts | 156° |
| 2026-04-14 20:16 | 52.41503 | 10.55046 | 1792 ft | 126 kts | 155° |
| 2026-04-14 20:16 | 52.40707 | 10.55684 | 1775 ft | 129 kts | 154° |
| 2026-04-14 20:16 | 52.39913 | 10.56398 | 1680 ft | 131 kts | 147° |
| 2026-04-14 20:16 | 52.39199 | 10.57294 | 1659 ft | 131 kts | 136° |
| 2026-04-14 20:17 | 52.38501 | 10.58272 | 1580 ft | 135 kts | 149° |
| 2026-04-14 20:17 | 52.37622 | 10.58772 | 1573 ft | 133 kts | 171° |
| 2026-04-14 20:17 | 52.36697 | 10.58948 | 1504 ft | 131 kts | 173° |
| 2026-04-14 20:17 | 52.35837 | 10.59133 | 1393 ft | 122 kts | 173° |
| 2026-04-14 20:18 | 52.34993 | 10.59302 | 1180 ft | 120 kts | 173° |
| 2026-04-14 20:18 | 52.34200 | 10.59426 | 1009 ft | 108 kts | 175° |
| 2026-04-14 20:18 | 52.33499 | 10.59521 | 871 ft | 95 kts | 175° |
| 2026-04-14 20:18 | 52.32886 | 10.59555 | 779 ft | 83 kts | 180° |
| 2026-04-14 20:19 | 52.32343 | 10.59390 | 658 ft | 78 kts | 210° |
| 2026-04-14 20:19 | 52.32085 | 10.58700 | 449 ft | 71 kts | 264° |
| 2026-04-14 20:19 | 52.32047 | 10.57887 | 331 ft | 75 kts | 265° |
| 2026-04-14 20:19 | 52.32002 | 10.57064 | 288 ft | 63 kts | 265° |
| 2026-04-14 20:20 | 52.31965 | 10.56414 | 354 ft | 75 kts | 264° |
| 2026-04-14 20:20 | 52.31903 | 10.55430 | 765 ft | 104 kts | 268° |
| 2026-04-14 20:20 | 52.31933 | 10.54134 | 1112 ft | 121 kts | 276° |
| 2026-04-14 20:20 | 52.32039 | 10.52735 | 1404 ft | 129 kts | 282° |
| 2026-04-14 20:21 | 52.32307 | 10.51310 | 1576 ft | 133 kts | 293° |
| 2026-04-14 20:21 | 52.32637 | 10.49873 | 1679 ft | 138 kts | 288° |
| 2026-04-14 20:21 | 52.32920 | 10.48358 | 1714 ft | 140 kts | 286° |
| 2026-04-14 20:21 | 52.33175 | 10.46809 | 1746 ft | 142 kts | 285° |
| 2026-04-14 20:22 | 52.33439 | 10.45244 | 1742 ft | 143 kts | 285° |
| 2026-04-14 20:22 | 52.33696 | 10.43690 | 1755 ft | 142 kts | 283° |
| 2026-04-14 20:22 | 52.33919 | 10.42126 | 1778 ft | 141 kts | 279° |
| 2026-04-14 20:22 | 52.34074 | 10.40535 | 1751 ft | 142 kts | 276° |
| 2026-04-14 20:23 | 52.34195 | 10.38926 | 1726 ft | 142 kts | 276° |
| 2026-04-14 20:23 | 52.34310 | 10.37332 | 1755 ft | 140 kts | 275° |
| 2026-04-14 20:23 | 52.34395 | 10.35734 | 1762 ft | 142 kts | 272° |
| 2026-04-14 20:23 | 52.34394 | 10.34117 | 1682 ft | 143 kts | 268° |
| 2026-04-14 20:24 | 52.34398 | 10.32501 | 1618 ft | 143 kts | 270° |
| 2026-04-14 20:24 | 52.34397 | 10.30929 | 1683 ft | 135 kts | 265° |
| 2026-04-14 20:24 | 52.34308 | 10.29381 | 1653 ft | 136 kts | 267° |
| 2026-04-14 20:24 | 52.34376 | 10.27884 | 1743 ft | 131 kts | 284° |
| 2026-04-14 20:25 | 52.34580 | 10.26408 | 1756 ft | 135 kts | 282° |
| 2026-04-14 20:25 | 52.34792 | 10.24926 | 1758 ft | 136 kts | 283° |
| 2026-04-14 20:25 | 52.35034 | 10.23427 | 1762 ft | 137 kts | 284° |
| 2026-04-14 20:25 | 52.35302 | 10.21960 | 1860 ft | 134 kts | 289° |
| 2026-04-14 20:26 | 52.35618 | 10.20519 | 1859 ft | 135 kts | 287° |
| 2026-04-14 20:26 | 52.35865 | 10.19032 | 1854 ft | 136 kts | 283° |
| 2026-04-14 20:26 | 52.36087 | 10.17498 | 1782 ft | 139 kts | 283° |
| 2026-04-14 20:26 | 52.36299 | 10.15970 | 1789 ft | 136 kts | 279° |
| 2026-04-14 20:27 | 52.36482 | 10.14444 | 1810 ft | 137 kts | 280° |
| 2026-04-14 20:27 | 52.36656 | 10.12920 | 1774 ft | 137 kts | 277° |
| 2026-04-14 20:27 | 52.36796 | 10.11393 | 1765 ft | 135 kts | 278° |
| 2026-04-14 20:27 | 52.36958 | 10.09885 | 1765 ft | 135 kts | 280° |
| 2026-04-14 20:28 | 52.37157 | 10.08384 | 1731 ft | 134 kts | 281° |
| 2026-04-14 20:28 | 52.37355 | 10.06914 | 1695 ft | 134 kts | 282° |
| 2026-04-14 20:28 | 52.37653 | 10.05489 | 1699 ft | 132 kts | 292° |
| 2026-04-14 20:28 | 52.38005 | 10.04097 | 1688 ft | 132 kts | 294° |
| 2026-04-14 20:29 | 52.38375 | 10.02715 | 1692 ft | 132 kts | 292° |
| 2026-04-14 20:29 | 52.38721 | 10.01312 | 1708 ft | 135 kts | 289° |
| 2026-04-14 20:29 | 52.38969 | 9.99829 | 1692 ft | 134 kts | 282° |
| 2026-04-14 20:29 | 52.39140 | 9.98342 | 1714 ft | 133 kts | 282° |
| 2026-04-14 20:30 | 52.39364 | 9.96900 | 1806 ft | 130 kts | 284° |
| 2026-04-14 20:30 | 52.39600 | 9.95461 | 1808 ft | 133 kts | 283° |
| 2026-04-14 20:30 | 52.39748 | 9.94479 | 1783 ft | 135 kts | 282° |
| 2026-04-14 20:30 | 52.39972 | 9.92979 | 1749 ft | 135 kts | 282° |
| 2026-04-14 20:31 | 52.40182 | 9.91473 | 1741 ft | 135 kts | 282° |
| 2026-04-14 20:31 | 52.40505 | 9.89510 | 1736 ft | 135 kts | 286° |
| 2026-04-14 20:31 | 52.40792 | 9.88033 | 1686 ft | 137 kts | 289° |
| 2026-04-14 20:31 | 52.41176 | 9.86624 | 1670 ft | 135 kts | 302° |
| 2026-04-14 20:32 | 52.41523 | 9.85752 | 1664 ft | 135 kts | 304° |
| 2026-04-14 20:32 | 52.42060 | 9.84463 | 1551 ft | 139 kts | 305° |
| 2026-04-14 20:32 | 52.42611 | 9.83165 | 1448 ft | 141 kts | 305° |
| 2026-04-14 20:32 | 52.43089 | 9.81771 | 1362 ft | 140 kts | 291° |
| 2026-04-14 20:33 | 52.43288 | 9.80249 | 1364 ft | 134 kts | 270° |
| 2026-04-14 20:33 | 52.43135 | 9.78766 | 1391 ft | 131 kts | 262° |
| 2026-04-14 20:33 | 52.43092 | 9.77272 | 1398 ft | 132 kts | 269° |
| 2026-04-14 20:34 | 52.43877 | 9.75094 | 1159 ft | 120 kts | 338° |
| 2026-04-14 20:34 | 52.44554 | 9.74631 | 1087 ft | 96 kts | 340° |
| 2026-04-14 20:34 | 52.45100 | 9.74117 | 917 ft | 87 kts | 311° |
| 2026-04-14 20:34 | 52.45325 | 9.73323 | 617 ft | 68 kts | 278° |
| 2026-04-14 20:35 | 52.45359 | 9.72513 | 406 ft | 75 kts | 274° |
| 2026-04-14 20:35 | 52.45387 | 9.71637 | 286 ft | 79 kts | 274° |
| 2026-04-14 20:35 | 52.45414 | 9.70751 | 184 ft | 74 kts | 273° |
| 2026-04-14 20:35 | 52.45432 | 9.70063 | 228 ft | 73 kts | 273° |
| 2026-04-14 20:36 | 52.45455 | 9.69099 | 667 ft | 95 kts | 272° |
| 2026-04-14 20:36 | 52.45744 | 9.68157 | 1113 ft | 101 kts | 334° |
| 2026-04-14 20:36 | 52.46448 | 9.68472 | 1346 ft | 124 kts | 46° |
| 2026-04-14 20:36 | 52.47023 | 9.69634 | 1420 ft | 137 kts | 53° |
| 2026-04-14 20:37 | 52.47624 | 9.70894 | 1413 ft | 142 kts | 50° |
| 2026-04-14 20:37 | 52.48296 | 9.72091 | 1421 ft | 144 kts | 44° |
| 2026-04-14 20:37 | 52.49021 | 9.73246 | 1419 ft | 146 kts | 47° |
| 2026-04-14 20:37 | 52.49613 | 9.74610 | 1402 ft | 146 kts | 55° |
| 2026-04-14 20:38 | 52.50221 | 9.75884 | 1518 ft | 140 kts | 49° |
| 2026-04-14 20:38 | 52.50936 | 9.77009 | 1631 ft | 145 kts | 38° |
| 2026-04-14 20:38 | 52.51778 | 9.77976 | 1675 ft | 151 kts | 34° |
| 2026-04-14 20:38 | 52.52649 | 9.78913 | 1706 ft | 150 kts | 34° |
| 2026-04-14 20:39 | 52.53529 | 9.79790 | 1720 ft | 146 kts | 31° |
| 2026-04-14 20:39 | 52.54347 | 9.80709 | 1828 ft | 138 kts | 55° |
| 2026-04-14 20:39 | 52.54295 | 9.82175 | 1807 ft | 139 kts | 128° |
| 2026-04-14 20:39 | 52.53706 | 9.83447 | 1796 ft | 139 kts | 123° |
| 2026-04-14 20:40 | 52.53278 | 9.84873 | 1811 ft | 139 kts | 113° |
| 2026-04-14 20:40 | 52.52946 | 9.86374 | 1815 ft | 141 kts | 109° |
| 2026-04-14 20:40 | 52.52610 | 9.87908 | 1822 ft | 144 kts | 111° |
| 2026-04-14 20:40 | 52.52270 | 9.89471 | 1798 ft | 146 kts | 109° |
| 2026-04-14 20:41 | 52.51975 | 9.91057 | 1840 ft | 145 kts | 105° |
| 2026-04-14 20:41 | 52.51792 | 9.92674 | 1911 ft | 146 kts | 95° |
| 2026-04-14 20:41 | 52.51725 | 9.94337 | 1859 ft | 150 kts | 93° |
| 2026-04-14 20:41 | 52.51692 | 9.96048 | 1798 ft | 150 kts | 92° |
| 2026-04-14 20:42 | 52.51668 | 9.97750 | 1826 ft | 150 kts | 92° |
| 2026-04-14 20:42 | 52.51618 | 9.99464 | 1822 ft | 150 kts | 93° |
| 2026-04-14 20:42 | 52.51507 | 10.02866 | 1776 ft | 148 kts | 95° |
| 2026-04-14 20:43 | 52.51477 | 10.04546 | 1800 ft | 147 kts | 92° |
| 2026-04-14 20:43 | 52.51467 | 10.06242 | 1769 ft | 150 kts | 89° |
| 2026-04-14 20:43 | 52.51495 | 10.07936 | 1772 ft | 147 kts | 88° |
| 2026-04-14 20:43 | 52.51558 | 10.09600 | 1785 ft | 147 kts | 87° |
| 2026-04-14 20:44 | 52.51611 | 10.11269 | 1788 ft | 145 kts | 88° |
| 2026-04-14 20:44 | 52.51629 | 10.12907 | 1786 ft | 145 kts | 91° |
| 2026-04-14 20:44 | 52.51618 | 10.14563 | 1795 ft | 144 kts | 92° |
| 2026-04-14 20:44 | 52.51569 | 10.16198 | 1809 ft | 142 kts | 97° |
| 2026-04-14 20:45 | 52.51449 | 10.17805 | 1798 ft | 142 kts | 99° |
| 2026-04-14 20:45 | 52.51305 | 10.19411 | 1788 ft | 142 kts | 98° |
| 2026-04-14 20:45 | 52.51180 | 10.21029 | 1814 ft | 142 kts | 99° |
| 2026-04-14 20:45 | 52.51049 | 10.22622 | 1859 ft | 139 kts | 99° |
| 2026-04-14 20:46 | 52.50911 | 10.24191 | 1874 ft | 140 kts | 101° |
| 2026-04-14 20:46 | 52.50743 | 10.25778 | 1885 ft | 142 kts | 102° |
| 2026-04-14 20:46 | 52.50557 | 10.27376 | 1884 ft | 141 kts | 102° |
| 2026-04-14 20:46 | 52.50407 | 10.28996 | 1838 ft | 146 kts | 98° |
| 2026-04-14 20:47 | 52.50359 | 10.30640 | 1813 ft | 145 kts | 89° |
| 2026-04-14 20:47 | 52.50497 | 10.32273 | 1825 ft | 144 kts | 81° |
| 2026-04-14 20:47 | 52.50712 | 10.33880 | 1811 ft | 144 kts | 76° |
| 2026-04-14 20:47 | 52.50896 | 10.35489 | 1864 ft | 142 kts | 83° |
| 2026-04-14 20:48 | 52.51120 | 10.37095 | 1796 ft | 147 kts | 70° |
| 2026-04-14 20:48 | 52.51536 | 10.38642 | 1646 ft | 149 kts | 66° |
| 2026-04-14 20:48 | 52.51947 | 10.40200 | 1502 ft | 147 kts | 68° |
| 2026-04-14 20:48 | 52.52346 | 10.41742 | 1332 ft | 145 kts | 66° |
| 2026-04-14 20:49 | 52.52820 | 10.43152 | 1088 ft | 133 kts | 59° |
| 2026-04-14 20:49 | 52.53160 | 10.44444 | 856 ft | 110 kts | 75° |
| 2026-04-14 20:49 | 52.53269 | 10.45518 | 835 ft | 76 kts | 83° |
| 2026-04-14 20:49 | 52.53319 | 10.46369 | 617 ft | 80 kts | 86° |
| 2026-04-14 20:50 | 52.53237 | 10.47216 | 480 ft | 78 kts | 131° |
| 2026-04-14 20:50 | 52.52742 | 10.47553 | 367 ft | 77 kts | 181° |
| 2026-04-14 20:50 | 52.52445 | 10.47014 | 215 ft | 70 kts | 270° |
| 2026-04-14 20:50 | 52.52465 | 10.46399 | 187 ft | 33 kts | 273° |
| 2026-04-14 20:51 | 52.52431 | 10.46299 | 195 ft | 11 kts | 125° |
| 2026-04-14 20:51 | 52.52393 | 10.46397 | 197 ft | 11 kts | 123° |
| 2026-04-14 20:51 | 52.52337 | 10.46539 | 186 ft | 19 kts | 121° |
| 2026-04-14 20:51 | 52.52311 | 10.46650 | 186 ft | 0 kts | 97° |